Latest Coastal Weather Observations for Lucinda

IDQ60701

Issued at 2:25 pm EST Friday 31 October 2014 (issued every 10 minutes, with the page automatically refreshed every 10 minutes)

About coastal observations | Map of coastal stations | Coastal observations for QLD | Marine services | Other Formats
Station Details ID: 032141 Name: LUCINDA POINT Lat: -18.52 Lon: 146.39 Height: 10.0 m
Data from the previous 72 hours. | See also: Recent months for locations in Queensland
Date/Time
EST
Temp

°C
Wind Pressure Rain
since 9am
mm
Weather Cloud Vis
km
Sea
Height
m
Swell
Dir
 
Speed
knots
Gust
knots
hPa Trend Height
m
Period
s
Dir
31/02:00pm 25.9 ENE 13 16 1011.8 - 0.0 - - - - - - -
31/01:30pm 26.2 ENE 10 14 1012.0 - 0.0 - - - - - - -
31/01:00pm 26.4 E 9 13 1012.6 - 0.0 - - - - - - -
31/12:30pm 25.9 ENE 8 10 1013.3 - 0.0 - - - - - - -
31/12:00pm 26.0 ENE 7 10 1013.9 - 0.0 - - - - - - -
31/11:30am 25.6 NE 8 9 1014.6 - 0.0 - - - - - - -
31/11:00am 25.8 NNE 6 8 1014.8 - 0.0 - - - - - - -
31/10:30am 26.8 N 6 8 1015.0 - 0.0 - - - - - - -
31/10:00am 26.3 N 6 8 1015.1 - 0.0 - - - - - - -
31/09:30am 26.2 N 7 10 1015.2 - 0.0 - - - - - - -
31/09:00am 26.4 N 8 11 1015.1 - 0.0 - - - - - - -
31/08:30am 25.9 N 9 11 1014.8 - 0.0 - - - - - - -
31/08:00am 25.4 NNE 9 11 1014.4 - 0.0 - - - - - - -
31/07:30am 25.1 NNE 9 11 1014.1 - 0.0 - - - - - - -
31/07:00am 25.2 NNE 10 12 1013.7 - 0.0 - - - - - - -
31/06:30am 25.0 NNE 11 13 1013.5 - 0.0 - - - - - - -
31/06:00am 24.8 NNE 11 14 1013.2 - 0.0 - - - - - - -
31/05:30am 24.5 NNE 11 14 1013.0 - 0.0 - - - - - - -
31/05:00am 24.6 NE 12 15 1012.7 - 0.0 - - - - - - -
31/04:30am 24.6 NE 13 15 1012.5 - 0.0 - - - - - - -
31/04:00am 24.6 NE 14 16 1012.3 - 0.0 - - - - - - -
31/03:30am 24.6 NE 14 16 1012.1 - 0.0 - - - - - - -
31/03:00am 24.6 NE 11 14 1012.0 - 0.0 - - - - - - -
31/02:30am 24.7 NNE 10 12 1012.0 - 0.0 - - - - - - -
31/02:00am 24.6 NE 9 11 1012.1 - 0.0 - - - - - - -
31/01:30am 24.6 NNE 10 11 1012.5 - 0.0 - - - - - - -
31/01:00am 24.9 NE 12 14 1012.9 - 0.0 - - - - - - -
31/12:30am 24.8 NE 12 15 1013.2 - 0.0 - - - - - - -
31/12:00am 24.8 NE 12 14 1013.5 - 0.0 - - - - - - -
 
Date/Time
EST
Temp

°C
Wind Pressure Rain
since 9am
mm
Weather Cloud Vis
km
Sea
Height
m
Swell
Dir
 
Speed
knots
Gust
knots
hPa Trend Height
m
Period
s
Dir
30/11:30pm 24.8 NNE 11 13 1013.6 - 0.0 - - - - - - -
30/11:00pm 24.8 NNE 10 12 1014.0 - 0.0 - - - - - - -
30/10:30pm 24.9 NE 10 11 1014.1 - 0.0 - - - - - - -
30/10:00pm 24.8 NE 10 11 1014.0 - 0.0 - - - - - - -
30/09:30pm 24.8 NE 10 11 1013.9 - 0.0 - - - - - - -
30/09:00pm 24.8 NE 11 13 1013.6 - 0.0 - - - - - - -
30/08:30pm 24.8 NE 11 13 1013.3 - 0.0 - - - - - - -
30/08:00pm 24.8 NE 11 13 1012.9 - 0.0 - - - - - - -
30/07:30pm 24.9 NE 12 13 1012.7 - 0.0 - - - - - - -
30/07:00pm 24.9 NE 12 14 1012.5 - 0.0 - - - - - - -
30/06:30pm 24.9 NE 11 13 1012.1 - 0.0 - - - - - - -
30/06:00pm 25.0 ENE 11 13 1011.9 - 0.0 - - - - - - -
30/05:30pm 25.2 ENE 12 14 1011.4 - 0.0 - - - - - - -
30/05:00pm 25.5 NE 13 14 1011.3 - 0.0 - - - - - - -
30/04:30pm 25.4 ENE 13 15 1011.3 - 0.0 - - - - - - -
30/04:00pm 25.3 NE 15 16 1011.2 - 0.0 - - - - - - -
30/03:30pm 25.3 NNE 14 16 1011.1 - 0.0 - - - - - - -
30/03:00pm 25.7 NNE 13 17 1011.2 - 0.0 - - - - - - -
30/02:30pm 25.7 NNE 12 15 1011.4 - 0.0 - - - - - - -
30/02:00pm 26.1 N 12 15 1011.7 - 0.0 - - - - - - -
30/01:30pm 25.7 NNE 13 15 1012.0 - 0.0 - - - - - - -
30/01:00pm 25.9 NNE 11 14 1012.5 - 0.0 - - - - - - -
30/12:30pm 26.1 N 11 14 1008.3 - 0.0 - - - - - - -
30/12:00pm 26.5 N 9 12 1013.9 - 0.0 - - - - - - -
30/11:30am 26.1 NNE 8 10 1014.5 - 0.0 - - - - - - -
30/11:00am 25.3 NE 8 10 1014.9 - 0.0 - - - - - - -
30/10:30am 25.2 NE 8 10 1015.0 - 0.0 - - - - - - -
30/10:00am 25.8 ENE 7 10 1015.1 - 0.0 - - - - - - -
30/09:30am 26.2 ENE 7 10 1015.2 - 0.0 - - - - - - -
30/09:00am 26.2 E 7 9 1015.6 - 0.0 - - - - - - -
30/08:30am 25.5 ESE 6 10 1015.8 - 0.0 - - - - - - -
30/08:00am 25.7 SW 3 5 1015.5 - 0.0 - - - - - - -
30/07:30am 24.1 SW 5 7 1015.3 - 0.0 - - - - - - -
30/07:00am 23.5 SSW 8 10 1015.0 - 0.0 - - - - - - -
30/06:30am 22.6 SSW 10 11 1014.6 - 0.0 - - - - - - -
30/06:00am 22.1 SSW 8 9 1014.1 - 0.0 - - - - - - -
30/05:30am 22.3 WSW 9 10 1013.0 - 0.0 - - - - - - -
30/05:00am 22.7 WSW 7 9 1012.6 - 0.0 - - - - - - -
30/04:30am 23.2 WSW 7 8 1012.3 - 0.0 - - - - - - -
30/04:00am 24.4 NW 7 11 1012.1 - 0.0 - - - - - - -
30/03:30am 24.4 NNW 11 15 1011.9 - 0.0 - - - - - - -
30/03:00am 24.6 N 12 14 1011.8 - 0.0 - - - - - - -
30/02:30am 24.6 N 11 14 1011.8 - 0.0 - - - - - - -
30/02:00am 24.5 NNW 12 14 1012.1 - 0.0 - - - - - - -
30/01:30am 24.6 NNW 12 14 1012.1 - 0.0 - - - - - - -
30/01:00am 24.4 N 11 14 1012.4 - 0.0 - - - - - - -
30/12:30am 24.5 NNW 12 15 1012.3 - 0.0 - - - - - - -
30/12:00am 24.4 NNW 10 14 1012.8 - 0.0 - - - - - - -
 
Date/Time
EST
Temp

°C
Wind Pressure Rain
since 9am
mm
Weather Cloud Vis
km
Sea
Height
m
Swell
Dir
 
Speed
knots
Gust
knots
hPa Trend Height
m
Period
s
Dir
29/11:30pm 24.4 NNW 7 10 1013.4 - 0.0 - - - - - - -
29/11:00pm 24.6 NNW 10 13 1013.6 - 0.0 - - - - - - -
29/10:30pm 24.7 NNW 10 13 1013.4 - 0.0 - - - - - - -
29/10:00pm 24.7 NNW 11 14 1013.4 - 0.0 - - - - - - -
29/09:30pm 24.8 N 11 14 1013.4 - 0.0 - - - - - - -
29/09:00pm 24.9 N 12 15 1013.2 - 0.0 - - - - - - -
29/08:30pm 24.8 N 13 17 1012.9 - 0.0 - - - - - - -
29/08:00pm 24.9 N 15 17 1012.6 - 0.0 - - - - - - -
29/07:30pm 24.8 N 16 19 1012.3 - 0.0 - - - - - - -
29/07:00pm 24.9 N 17 19 1012.2 - 0.0 - - - - - - -
29/06:30pm 25.0 N 16 19 1011.9 - 0.0 - - - - - - -
29/06:00pm 25.2 N 16 19 1011.7 - 0.0 - - - - - - -
29/05:30pm 25.5 N 15 18 1011.5 - 0.0 - - - - - - -
29/05:00pm 25.5 NNE 15 18 1011.3 - 0.0 - - - - - - -
29/04:30pm 25.3 NNE 17 19 1011.4 - 0.0 - - - - - - -
29/04:00pm 25.2 NNE 17 19 1011.4 - 0.0 - - - - - - -
29/03:30pm 25.1 NNE 17 19 1011.4 - 0.0 - - - - - - -
29/03:00pm 25.2 NNE 17 19 1011.5 - 0.0 - - - - - - -
29/02:30pm 25.3 NNE 15 18 1011.8 - 0.0 - - - - - - -
29/02:00pm 25.6 N 14 17 1012.2 - 0.0 - - - - - - -
29/01:30pm 25.5 NNE 14 16 1012.5 - 0.0 - - - - - - -
29/01:00pm 25.2 NNE 12 15 1013.0 - 0.0 - - - - - - -
29/12:30pm 25.1 NNE 12 14 1013.4 - 0.0 - - - - - - -
29/12:00pm 25.5 N 11 13 1013.6 - 0.0 - - - - - - -
29/11:30am 25.2 NNE 9 11 1014.2 - 0.0 - - - - - - -
29/11:00am 24.7 NNE 8 10 1014.3 - 0.0 - - - - - - -
29/10:30am 25.5 ENE 6 8 1014.6 - 0.0 - - - - - - -
29/10:00am 27.2 NW 3 5 1014.8 - 0.0 - - - - - - -
29/09:30am 24.7 W 1 3 1014.9 - 0.0 - - - - - - -
29/09:00am 24.6 S 4 5 1015.3 - 0.0 - - - - - - -
29/08:30am 23.7 SSW 6 7 1015.1 - 0.0 - - - - - - -
29/08:00am 23.5 SSW 7 9 1014.8 - 0.0 - - - - - - -
29/07:30am 23.3 SSW 7 8 1014.7 - 0.0 - - - - - - -
29/07:00am 22.9 SW 5 7 1013.8 - 0.0 - - - - - - -
29/06:30am 22.6 WSW 6 7 1013.2 - 0.0 - - - - - - -
29/06:00am 22.5 WSW 7 8 1012.7 - 0.0 - - - - - - -
29/05:30am 22.3 WSW 7 8 1012.2 - 0.0 - - - - - - -
29/05:00am 22.2 WSW 7 8 1012.0 - 0.0 - - - - - - -
29/04:30am 22.3 WSW 9 11 1011.9 - 0.0 - - - - - - -
29/04:00am 22.5 WSW 9 10 1011.7 - 0.0 - - - - - - -
29/03:30am 22.9 WSW 8 11 1011.6 - 0.0 - - - - - - -
29/03:00am 23.7 NNW 9 11 1011.5 - 0.0 - - - - - - -
29/02:30am 23.8 NNW 11 14 1011.5 - 0.0 - - - - - - -
29/02:00am 23.9 NNW 13 16 1011.8 - 0.0 - - - - - - -
29/01:30am 23.8 NNW 12 14 1011.9 - 0.0 - - - - - - -
29/01:00am 23.9 NW 8 11 1012.3 - 0.0 - - - - - - -
29/12:30am 24.0 NNW 11 14 1012.7 - 0.0 - - - - - - -
29/12:00am 24.1 NNW 12 14 1012.9 - 0.0 - - - - - - -
 
Date/Time
EST
Temp

°C
Wind Pressure Rain
since 9am
mm
Weather Cloud Vis
km
Sea
Height
m
Swell
Dir
 
Speed
knots
Gust
knots
hPa Trend Height
m
Period
s
Dir
28/11:30pm 24.2 NNW 11 14 1013.3 - 0.0 - - - - - - -
28/11:00pm 24.3 NNW 11 13 1013.7 - 0.0 - - - - - - -
28/10:30pm 24.3 NNW 11 13 1013.8 - 0.0 - - - - - - -
28/10:00pm 24.4 NNW 10 13 1013.7 - 0.0 - - - - - - -
28/09:30pm 24.4 N 11 14 1013.7 - 0.0 - - - - - - -
28/09:00pm 24.4 N 11 16 1013.5 - 0.0 - - - - - - -
28/08:30pm 24.4 N 12 15 1013.5 - 0.0 - - - - - - -
28/08:00pm 24.5 N 12 14 1013.3 - 0.0 - - - - - - -
28/07:30pm 24.7 NNE 13 16 1013.0 - 0.0 - - - - - - -
28/07:00pm 24.6 NNE 12 14 1012.7 - 0.0 - - - - - - -
28/06:30pm 24.4 NNE 13 16 1012.4 - 0.0 - - - - - - -
28/06:00pm 24.7 NNE 14 16 1012.2 - 0.0 - - - - - - -
28/05:30pm 24.8 NNE 13 16 1012.1 - 0.0 - - - - - - -
28/05:00pm 25.0 NNE 14 16 1011.9 - 0.0 - - - - - - -
28/04:30pm 24.8 NE 12 14 1012.0 - 0.0 - - - - - - -
28/04:00pm 24.8 NE 13 15 1012.0 - 0.0 - - - - - - -
28/03:30pm 24.8 NE 13 14 1012.0 - 0.0 - - - - - - -
28/03:00pm 24.9 NE 12 14 1012.1 - 0.0 - - - - - - -
28/02:30pm 24.8 NE 10 12 1012.4 - 0.0 - - - - - - -

Other Formats:

Comma delimited format used in spreadsheet applications
http://www.bom.gov.au/fwo/IDQ60701/IDQ60701.94295.axf

JavaScript Object Notation format (JSON) in row-major order
http://www.bom.gov.au/fwo/IDQ60701/IDQ60701.94295.json